createdAt,value
2018-12-16T00:02:08.702Z,13.63
2018-12-16T00:04:37.467Z,13.97
2018-12-16T00:07:05.994Z,11.80
2018-12-16T00:09:34.626Z,13.43
2018-12-16T00:12:03.207Z,14.40
2018-12-16T00:14:31.750Z,12.77
2018-12-16T00:17:00.411Z,12.80
2018-12-16T00:19:29.070Z,13.87
2018-12-16T00:21:57.699Z,13.73
2018-12-16T00:24:26.341Z,10.70
2018-12-16T00:27:06.211Z,13.93
2018-12-16T00:29:34.721Z,13.77
2018-12-16T00:32:03.369Z,13.83
2018-12-16T00:34:31.847Z,12.37
2018-12-16T00:37:00.538Z,13.90
2018-12-16T00:39:29.026Z,13.77
2018-12-16T00:41:57.567Z,14.80
2018-12-16T00:44:26.199Z,14.03
2018-12-16T00:46:54.776Z,14.67
2018-12-16T00:49:23.406Z,14.30
2018-12-16T00:51:52.134Z,14.40
2018-12-16T00:54:21.063Z,14.60
2018-12-16T00:56:50.383Z,13.53
2018-12-16T00:59:19.427Z,16.20
2018-12-16T01:01:48.640Z,12.33
2018-12-16T01:04:17.567Z,15.57
2018-12-16T01:06:46.698Z,16.57
2018-12-16T01:09:15.902Z,15.47
2018-12-16T01:11:45.089Z,15.37
2018-12-16T01:14:13.774Z,15.53
2018-12-16T01:16:42.487Z,15.57
2018-12-16T01:19:10.983Z,15.07
2018-12-16T01:21:39.465Z,15.03
2018-12-16T01:24:07.976Z,15.27
2018-12-16T01:26:36.594Z,14.67
2018-12-16T01:29:05.224Z,15.97
2018-12-16T01:31:33.664Z,16.40
2018-12-16T01:34:02.151Z,14.60
2018-12-16T01:36:30.712Z,10.97
2018-12-16T01:38:59.244Z,15.17
2018-12-16T01:41:27.750Z,15.77
2018-12-16T01:43:56.270Z,14.97
2018-12-16T01:46:24.797Z,15.60
2018-12-16T01:48:53.300Z,14.97
2018-12-16T01:51:21.822Z,16.53
2018-12-16T01:53:50.376Z,14.40
2018-12-16T01:56:19.572Z,16.63
2018-12-16T01:58:48.772Z,15.77
2018-12-16T02:01:17.875Z,15.13
2018-12-16T02:03:48.035Z,15.10
2018-12-16T02:06:16.653Z,16.63
2018-12-16T02:08:45.689Z,17.70
2018-12-16T02:11:14.234Z,15.40
2018-12-16T02:13:42.708Z,17.67
2018-12-16T02:16:11.402Z,14.90
2018-12-16T02:18:39.881Z,15.83
2018-12-16T02:21:08.414Z,16.73
2018-12-16T02:23:36.936Z,16.10
2018-12-16T02:26:05.534Z,16.77
2018-12-16T02:28:34.124Z,16.67
2018-12-16T02:31:10.244Z,16.23
2018-12-16T02:33:39.068Z,15.73
2018-12-16T02:36:07.625Z,16.23
2018-12-16T02:38:43.049Z,16.33
2018-12-16T02:41:11.868Z,16.57
2018-12-16T02:43:40.962Z,16.53
2018-12-16T02:46:09.489Z,17.47
2018-12-16T02:48:38.143Z,16.97
2018-12-16T02:51:06.620Z,16.93
2018-12-16T02:53:35.116Z,17.10
2018-12-16T02:56:03.596Z,16.47
2018-12-16T02:58:32.147Z,17.13
2018-12-16T03:01:01.031Z,15.60
2018-12-16T03:03:29.544Z,16.03
2018-12-16T03:05:58.085Z,17.37
2018-12-16T03:08:26.630Z,17.50
2018-12-16T03:10:55.181Z,16.27
2018-12-16T03:13:23.870Z,17.07
2018-12-16T03:15:52.709Z,16.77
2018-12-16T03:18:21.197Z,15.37
2018-12-16T03:20:49.719Z,16.40
2018-12-16T03:23:18.311Z,15.47
2018-12-16T03:25:46.825Z,16.57
2018-12-16T03:28:17.737Z,16.03
2018-12-16T03:30:47.514Z,16.40
2018-12-16T03:33:16.566Z,17.97
2018-12-16T03:35:45.222Z,16.90
2018-12-16T03:38:13.883Z,16.47
2018-12-16T03:40:42.413Z,17.60
2018-12-16T03:43:11.216Z,19.17
2018-12-16T03:48:36.386Z,17.50
2018-12-16T03:51:04.862Z,16.43
2018-12-16T03:53:33.362Z,17.90
2018-12-16T03:56:01.921Z,17.60
2018-12-16T03:58:30.463Z,17.70
2018-12-16T04:00:58.954Z,18.83
2018-12-16T04:03:27.491Z,18.03
2018-12-16T04:05:56.003Z,18.67
2018-12-16T04:08:24.508Z,19.43
2018-12-16T04:10:53.019Z,14.90
2018-12-16T04:13:21.527Z,17.73
2018-12-16T04:15:50.013Z,18.87
2018-12-16T04:18:18.526Z,18.10
2018-12-16T04:20:47.034Z,19.93
2018-12-16T04:23:15.581Z,21.07
2018-12-16T04:25:44.084Z,18.80
2018-12-16T04:28:12.827Z,18.73
2018-12-16T04:30:41.360Z,21.83
2018-12-16T04:33:09.845Z,19.27
2018-12-16T04:35:38.414Z,21.07
2018-12-16T04:38:07.043Z,21.37
2018-12-16T04:40:35.525Z,20.77
2018-12-16T04:43:04.063Z,20.10
2018-12-16T04:45:32.594Z,20.97
2018-12-16T04:48:01.201Z,20.40
2018-12-16T04:50:29.739Z,20.13
2018-12-16T04:52:58.196Z,21.30
2018-12-16T04:55:26.729Z,20.13
2018-12-16T04:57:55.219Z,21.03
2018-12-16T05:00:23.824Z,19.70
2018-12-16T05:02:52.496Z,20.43
2018-12-16T05:05:21.033Z,19.17
2018-12-16T05:07:49.740Z,16.73
2018-12-16T05:10:27.402Z,20.00
2018-12-16T05:12:55.908Z,20.57
2018-12-16T05:15:24.678Z,17.17
2018-12-16T05:17:53.328Z,21.33
2018-12-16T05:20:21.854Z,18.47
2018-12-16T05:22:50.359Z,19.43
2018-12-16T05:25:18.853Z,18.80
2018-12-16T05:27:47.315Z,19.10
2018-12-16T05:30:15.868Z,18.43
2018-12-16T05:32:44.331Z,19.93
2018-12-16T05:35:12.869Z,18.53
2018-12-16T05:37:41.352Z,18.87
2018-12-16T05:40:10.058Z,18.43
2018-12-16T05:42:38.544Z,17.07
2018-12-16T05:45:07.285Z,17.20
2018-12-16T05:47:35.798Z,19.00
2018-12-16T05:50:05.034Z,17.33
2018-12-16T05:52:33.568Z,17.50
2018-12-16T05:55:02.068Z,20.03
2018-12-16T05:57:30.569Z,19.43
2018-12-16T05:59:59.068Z,14.47
2018-12-16T06:02:27.586Z,20.60
2018-12-16T06:04:56.100Z,20.57
2018-12-16T06:07:24.575Z,20.00
2018-12-16T06:09:53.182Z,21.60
2018-12-16T06:12:21.676Z,20.13
2018-12-16T06:14:50.146Z,21.57
2018-12-16T06:17:18.726Z,18.00
2018-12-16T06:19:47.471Z,19.97
2018-12-16T06:22:16.041Z,19.17
2018-12-16T06:24:44.552Z,20.50
2018-12-16T06:27:13.094Z,18.40
2018-12-16T06:29:42.517Z,19.80
2018-12-16T06:32:11.128Z,18.87
2018-12-16T06:34:40.215Z,15.70
2018-12-16T06:37:09.191Z,20.03
2018-12-16T06:39:41.820Z,17.93
2018-12-16T06:42:10.907Z,19.87
2018-12-16T06:44:39.459Z,18.27
2018-12-16T06:47:08.032Z,19.67
2018-12-16T06:49:36.513Z,21.40
2018-12-16T06:52:05.009Z,18.37
2018-12-16T06:54:33.508Z,19.13
2018-12-16T06:57:01.981Z,17.63
2018-12-16T06:59:30.516Z,18.13
2018-12-16T07:02:00.886Z,18.37
2018-12-16T07:04:29.660Z,18.10
2018-12-16T07:06:58.153Z,21.52
2018-12-16T07:09:26.680Z,18.30
2018-12-16T07:11:55.183Z,20.37
2018-12-16T07:14:23.948Z,19.53
2018-12-16T07:16:52.844Z,18.10
2018-12-16T07:19:21.376Z,19.03
2018-12-16T07:21:49.990Z,20.67
2018-12-16T07:24:18.514Z,18.83
2018-12-16T07:26:47.003Z,18.30
2018-12-16T07:29:15.575Z,17.13
2018-12-16T07:31:44.094Z,19.77
2018-12-16T07:34:12.615Z,20.17
2018-12-16T07:36:41.115Z,20.87
2018-12-16T07:39:09.657Z,20.67
2018-12-16T07:41:38.150Z,19.23
2018-12-16T07:44:06.707Z,20.77
2018-12-16T07:46:35.191Z,21.00
2018-12-16T07:49:03.775Z,19.37
2018-12-16T07:51:32.408Z,19.93
2018-12-16T07:54:00.982Z,20.43
2018-12-16T07:56:29.486Z,19.90
2018-12-16T07:58:58.502Z,20.53
2018-12-16T08:01:27.305Z,20.23
2018-12-16T08:03:55.891Z,21.30
2018-12-16T08:06:24.457Z,18.63
2018-12-16T08:08:53.059Z,20.23
2018-12-16T08:11:21.969Z,21.10
2018-12-16T08:13:50.634Z,20.80
2018-12-16T08:16:19.372Z,21.03
2018-12-16T08:18:47.925Z,20.10
2018-12-16T08:21:16.453Z,21.03
2018-12-16T08:23:45.045Z,20.80
2018-12-16T08:26:13.790Z,21.03
2018-12-16T08:28:42.701Z,20.90
2018-12-16T08:31:11.189Z,22.50
2018-12-16T08:33:39.716Z,21.80
2018-12-16T08:36:08.206Z,20.63
2018-12-16T08:38:36.725Z,18.63
2018-12-16T08:41:05.229Z,21.97
2018-12-16T08:43:33.716Z,20.63
2018-12-16T08:46:02.225Z,20.77
2018-12-16T08:48:30.735Z,16.43
2018-12-16T08:50:59.247Z,22.27
2018-12-16T08:53:27.728Z,20.53
2018-12-16T08:55:57.853Z,23.47
2018-12-16T08:58:26.674Z,21.00
2018-12-16T09:00:55.199Z,20.97
2018-12-16T09:03:23.702Z,21.13
2018-12-16T09:05:52.233Z,21.10
2018-12-16T09:08:20.795Z,20.37
2018-12-16T09:10:49.306Z,20.80
2018-12-16T09:13:17.829Z,20.80
2018-12-16T09:15:46.436Z,21.30
2018-12-16T09:18:15.516Z,19.63
2018-12-16T09:20:44.635Z,20.23
2018-12-16T09:23:14.195Z,21.67
2018-12-16T09:25:42.724Z,20.10
2018-12-16T09:28:11.216Z,19.30
2018-12-16T09:30:39.713Z,19.50
2018-12-16T09:33:08.240Z,20.63
2018-12-16T09:35:36.750Z,19.77
2018-12-16T09:38:05.263Z,17.50
2018-12-16T09:40:33.745Z,19.87
2018-12-16T09:43:02.267Z,20.53
2018-12-16T09:45:30.744Z,18.83
2018-12-16T09:47:59.445Z,17.20
2018-12-16T09:50:27.917Z,19.87
2018-12-16T09:52:56.439Z,18.90
2018-12-16T09:55:24.981Z,18.03
2018-12-16T09:57:53.493Z,17.53
2018-12-16T10:00:22.090Z,19.27
2018-12-16T10:02:50.562Z,17.60
2018-12-16T10:05:19.062Z,18.27
2018-12-16T10:07:47.538Z,16.87
2018-12-16T10:10:16.070Z,18.17
2018-12-16T10:12:44.588Z,15.73
2018-12-16T10:15:13.241Z,16.07
2018-12-16T10:17:41.756Z,17.50
2018-12-16T10:20:11.627Z,18.60
2018-12-16T10:22:40.283Z,16.57
2018-12-16T10:25:08.849Z,16.07
2018-12-16T10:27:37.383Z,18.17
2018-12-16T10:30:07.783Z,15.63
2018-12-16T10:32:36.969Z,16.27
2018-12-16T10:35:06.010Z,17.33
2018-12-16T10:37:34.611Z,17.53
2018-12-16T10:40:03.428Z,16.60
2018-12-16T10:42:31.939Z,16.77
2018-12-16T10:45:00.465Z,16.30
2018-12-16T10:47:29.007Z,16.10
2018-12-16T10:49:57.550Z,16.93
2018-12-16T10:52:26.037Z,16.37
2018-12-16T10:54:58.316Z,16.33
2018-12-16T11:00:01.865Z,17.67
2018-12-16T11:02:30.356Z,17.20
2018-12-16T11:04:58.892Z,16.37
2018-12-16T11:07:27.371Z,16.63
2018-12-16T11:09:56.025Z,15.57
2018-12-16T11:12:24.605Z,15.13
2018-12-16T11:14:53.111Z,15.70
2018-12-16T11:17:21.644Z,17.63
2018-12-16T11:19:50.270Z,16.70
2018-12-16T11:22:18.739Z,16.47
2018-12-16T11:24:47.267Z,16.53
2018-12-16T11:27:15.906Z,16.23
2018-12-16T11:29:44.446Z,15.80
2018-12-16T11:32:13.028Z,15.17
2018-12-16T11:34:41.563Z,17.63
2018-12-16T11:37:10.069Z,14.90
2018-12-16T11:39:38.589Z,15.73
2018-12-16T11:42:07.098Z,16.47
2018-12-16T11:44:35.760Z,17.63
2018-12-16T11:47:04.423Z,16.77
2018-12-16T11:49:32.893Z,15.67
2018-12-16T11:52:01.455Z,16.60
2018-12-16T11:54:30.094Z,17.40
2018-12-16T11:56:58.637Z,15.83
2018-12-16T11:59:27.196Z,16.00
2018-12-16T12:01:55.693Z,17.37
2018-12-16T12:04:24.224Z,15.60
2018-12-16T12:06:52.791Z,16.60
2018-12-16T12:09:21.386Z,15.80
2018-12-16T12:11:49.909Z,17.13
2018-12-16T12:14:18.453Z,17.63
2018-12-16T12:16:47.029Z,16.73
2018-12-16T12:19:15.519Z,16.07
2018-12-16T12:21:44.315Z,17.90
2018-12-16T12:24:12.922Z,16.70
2018-12-16T12:26:41.500Z,15.63
2018-12-16T12:29:10.023Z,16.33
2018-12-16T12:31:38.577Z,16.77
2018-12-16T12:34:07.210Z,17.20
2018-12-16T12:36:35.697Z,16.53
2018-12-16T12:39:06.271Z,16.33
2018-12-16T12:41:34.851Z,16.80
2018-12-16T12:44:03.349Z,17.50
2018-12-16T12:46:31.893Z,16.90
2018-12-16T12:49:00.402Z,16.70
2018-12-16T12:51:28.930Z,17.40
2018-12-16T12:53:57.439Z,16.57
2018-12-16T12:56:25.938Z,16.27
2018-12-16T12:58:54.466Z,16.27
2018-12-16T13:01:23.048Z,17.03
2018-12-16T13:03:51.514Z,17.27
2018-12-16T13:06:20.038Z,16.53
2018-12-16T13:08:48.559Z,17.60
2018-12-16T13:11:17.120Z,16.30
2018-12-16T13:13:45.666Z,17.23
2018-12-16T13:16:14.219Z,17.93
2018-12-16T13:18:42.750Z,18.83
2018-12-16T13:21:11.317Z,16.77
2018-12-16T13:23:39.936Z,18.27
2018-12-16T13:26:08.874Z,17.73
2018-12-16T13:28:37.391Z,17.97
2018-12-16T13:31:05.921Z,17.50
2018-12-16T13:33:34.673Z,17.40
2018-12-16T13:36:03.252Z,16.83
2018-12-16T13:38:31.762Z,18.30
2018-12-16T13:41:00.348Z,17.47
2018-12-16T13:43:28.841Z,18.80
2018-12-16T13:45:57.363Z,17.50
2018-12-16T13:48:25.871Z,18.63
2018-12-16T13:50:54.335Z,17.27
2018-12-16T13:53:22.841Z,17.40
2018-12-16T13:55:51.423Z,17.20
2018-12-16T13:58:20.053Z,17.20
2018-12-16T14:00:48.659Z,19.17
2018-12-16T14:03:17.173Z,18.50
2018-12-16T14:05:46.736Z,16.90
2018-12-16T14:08:16.007Z,18.93
2018-12-16T14:10:44.635Z,18.20
2018-12-16T14:13:13.143Z,18.00
2018-12-16T14:15:41.691Z,18.73
2018-12-16T14:18:10.549Z,19.53
2018-12-16T14:20:39.288Z,18.60
2018-12-16T14:23:07.777Z,19.63
2018-12-16T14:25:36.239Z,18.53
2018-12-16T14:28:04.784Z,19.03
2018-12-16T14:30:33.235Z,18.67
2018-12-16T14:33:01.705Z,19.00
2018-12-16T14:35:30.506Z,19.70
2018-12-16T14:37:59.419Z,18.80
2018-12-16T14:40:30.938Z,19.03
2018-12-16T14:42:59.435Z,19.73
2018-12-16T14:45:27.907Z,21.03
2018-12-16T14:47:56.428Z,19.57
2018-12-16T14:50:24.907Z,19.60
2018-12-16T14:52:53.396Z,18.83
2018-12-16T14:55:21.855Z,19.70
2018-12-16T14:57:50.946Z,20.43
2018-12-16T15:00:19.368Z,20.63
2018-12-16T15:02:47.943Z,24.00
2018-12-16T15:05:16.376Z,21.87
2018-12-16T15:07:45.486Z,20.67
2018-12-16T15:10:14.049Z,20.83
2018-12-16T15:12:42.577Z,21.37
2018-12-16T15:15:11.319Z,20.90
2018-12-16T15:17:42.984Z,21.57
2018-12-16T15:20:10.495Z,20.73
2018-12-16T15:22:38.997Z,20.67
2018-12-16T15:25:07.501Z,19.57
2018-12-16T15:27:36.079Z,20.60
2018-12-16T15:30:06.514Z,20.73
2018-12-16T15:32:35.064Z,21.37
2018-12-16T15:35:03.703Z,20.90
2018-12-16T15:37:32.223Z,20.83
2018-12-16T15:40:00.704Z,22.93
2018-12-16T15:42:29.230Z,20.23
2018-12-16T15:44:57.674Z,20.83
2018-12-16T15:47:26.229Z,21.63
2018-12-16T15:49:54.776Z,20.00
2018-12-16T15:52:23.241Z,20.40
2018-12-16T15:54:51.705Z,19.83
2018-12-16T15:57:20.190Z,20.97
2018-12-16T15:59:48.735Z,20.40
2018-12-16T16:02:17.197Z,18.63
2018-12-16T16:04:45.750Z,20.57
2018-12-16T16:07:14.297Z,20.63
2018-12-16T16:09:42.782Z,19.67
2018-12-16T16:12:11.330Z,20.77
2018-12-16T16:14:39.795Z,19.30
2018-12-16T16:17:08.256Z,20.30
2018-12-16T16:19:37.105Z,19.20
2018-12-16T16:22:05.717Z,20.47
2018-12-16T16:24:34.391Z,20.57
2018-12-16T16:27:02.889Z,21.27
2018-12-16T16:29:31.400Z,20.33
2018-12-16T16:31:59.859Z,19.17
2018-12-16T16:34:28.657Z,20.23
2018-12-16T16:36:57.143Z,21.03
2018-12-16T16:39:25.637Z,19.60
2018-12-16T16:41:54.111Z,20.90
2018-12-16T16:44:22.629Z,20.93
2018-12-16T16:46:51.078Z,19.60
2018-12-16T16:49:19.570Z,20.53
2018-12-16T16:51:48.004Z,22.20
2018-12-16T16:54:16.623Z,20.67
2018-12-16T16:56:45.151Z,20.40
2018-12-16T16:59:13.638Z,20.10
2018-12-16T17:01:42.225Z,21.37
2018-12-16T17:04:10.939Z,21.43
2018-12-16T17:06:39.629Z,21.30
2018-12-16T17:09:10.050Z,21.63
2018-12-16T17:11:38.779Z,19.77
2018-12-16T17:14:07.578Z,20.83
2018-12-16T17:16:36.133Z,22.67
2018-12-16T17:19:04.801Z,20.57
2018-12-16T17:21:33.623Z,20.77
2018-12-16T17:24:02.245Z,21.13
2018-12-16T17:26:30.745Z,20.90
2018-12-16T17:28:59.194Z,21.90
2018-12-16T17:31:27.786Z,22.07
2018-12-16T17:33:56.275Z,23.20
2018-12-16T17:36:25.166Z,22.00
2018-12-16T17:38:53.726Z,21.23
2018-12-16T17:41:22.352Z,20.97
2018-12-16T17:43:51.029Z,21.17
2018-12-16T17:46:19.773Z,20.70
2018-12-16T17:48:48.259Z,21.30
2018-12-16T17:51:16.867Z,21.43
2018-12-16T17:53:45.383Z,21.73
2018-12-16T17:56:13.999Z,20.77
2018-12-16T17:58:42.949Z,21.47
2018-12-16T18:01:11.629Z,22.37
2018-12-16T18:03:40.280Z,21.20
2018-12-16T18:06:08.959Z,19.83
2018-12-16T18:08:37.690Z,21.37
2018-12-16T18:11:06.454Z,22.53
2018-12-16T18:13:35.057Z,21.37
2018-12-16T18:16:03.649Z,21.40
2018-12-16T18:18:32.384Z,22.87
2018-12-16T18:21:00.867Z,21.83
2018-12-16T18:23:29.792Z,23.37
2018-12-16T18:25:59.944Z,25.20
2018-12-16T18:28:28.490Z,22.73
2018-12-16T18:30:56.968Z,27.63
2018-12-16T18:33:25.671Z,21.47
2018-12-16T18:35:54.240Z,24.27
2018-12-16T18:38:22.747Z,23.50
2018-12-16T18:40:51.246Z,21.97
2018-12-16T18:43:19.919Z,20.47
2018-12-16T18:45:48.548Z,20.60
2018-12-16T18:48:17.113Z,21.33
2018-12-16T18:50:45.632Z,20.70
2018-12-16T18:53:14.131Z,21.70
2018-12-16T18:55:42.839Z,22.10
2018-12-16T18:58:11.329Z,21.13
2018-12-16T19:00:39.831Z,21.87
2018-12-16T19:03:08.480Z,21.63
2018-12-16T19:05:37.068Z,20.83
2018-12-16T19:08:05.641Z,20.57
2018-12-16T19:10:34.493Z,21.17
2018-12-16T19:13:02.968Z,19.40
2018-12-16T19:15:31.429Z,20.50
2018-12-16T19:17:59.939Z,21.43
2018-12-16T19:20:28.424Z,20.73
2018-12-16T19:22:56.914Z,21.10
2018-12-16T19:25:25.441Z,20.17
2018-12-16T19:27:53.968Z,20.97
2018-12-16T19:30:22.605Z,22.37
2018-12-16T19:32:51.334Z,22.67
2018-12-16T19:35:19.875Z,20.40
2018-12-16T19:37:48.587Z,21.73
2018-12-16T19:40:17.354Z,20.87
2018-12-16T19:42:45.918Z,19.87
2018-12-16T19:45:14.368Z,21.50
2018-12-16T19:47:49.414Z,21.10
2018-12-16T19:50:13.452Z,21.43
2018-12-16T19:52:41.981Z,22.17
2018-12-16T19:55:10.474Z,21.67
2018-12-16T19:57:38.988Z,21.27
2018-12-16T20:00:07.852Z,20.47
2018-12-16T20:02:36.371Z,19.73
2018-12-16T20:05:05.617Z,22.37
2018-12-16T20:07:34.437Z,21.83
2018-12-16T20:10:03.036Z,20.57
2018-12-16T20:12:31.590Z,21.77
2018-12-16T20:15:00.088Z,20.87
2018-12-16T20:17:28.583Z,20.27
2018-12-16T20:19:57.068Z,20.63
2018-12-16T20:22:25.582Z,21.23
2018-12-16T20:24:54.364Z,21.27
2018-12-16T20:27:22.962Z,21.13
2018-12-16T20:29:51.719Z,20.97
2018-12-16T20:32:20.366Z,21.07
2018-12-16T20:34:49.056Z,20.50
2018-12-16T20:37:20.301Z,21.07
2018-12-16T20:39:48.884Z,22.33
2018-12-16T20:42:17.895Z,19.97
2018-12-16T20:44:46.408Z,20.53
2018-12-16T20:47:15.432Z,20.87
2018-12-16T20:49:43.941Z,19.57
2018-12-16T20:52:13.010Z,19.67
2018-12-16T20:54:42.145Z,18.90
2018-12-16T20:57:18.681Z,19.23
2018-12-16T20:59:43.110Z,19.50
2018-12-16T21:02:13.461Z,19.37
2018-12-16T21:04:48.494Z,19.90
2018-12-16T21:07:17.321Z,19.27
2018-12-16T21:09:45.934Z,17.27
2018-12-16T21:12:22.094Z,19.90
2018-12-16T21:14:56.139Z,19.27
2018-12-16T21:17:30.092Z,18.57
2018-12-16T21:19:58.723Z,19.73
2018-12-16T21:22:27.463Z,19.47
2018-12-16T21:24:58.167Z,19.03
2018-12-16T21:27:31.371Z,18.33
2018-12-16T21:30:00.192Z,18.37
2018-12-16T21:32:30.402Z,18.97
2018-12-16T21:34:59.614Z,18.80
2018-12-16T21:37:29.443Z,18.47
2018-12-16T21:39:58.165Z,19.00
2018-12-16T21:42:26.929Z,18.43
2018-12-16T21:44:55.608Z,19.57
2018-12-16T21:47:24.597Z,17.47
2018-12-16T21:49:53.354Z,18.20
2018-12-16T21:52:22.254Z,18.60
2018-12-16T21:54:51.012Z,18.73
2018-12-16T21:57:19.776Z,19.23
2018-12-16T21:59:48.481Z,18.50
2018-12-16T22:02:22.754Z,18.93
2018-12-16T22:04:52.611Z,18.27
2018-12-16T22:07:22.223Z,18.90
2018-12-16T22:09:51.010Z,18.80
2018-12-16T22:12:19.498Z,18.33
2018-12-16T22:14:48.021Z,18.63
2018-12-16T22:17:16.506Z,18.70
2018-12-16T22:19:45.012Z,19.70
2018-12-16T22:22:13.541Z,19.37
2018-12-16T22:24:42.066Z,19.23
2018-12-16T22:27:10.578Z,18.93
2018-12-16T22:29:39.114Z,17.40
2018-12-16T22:32:07.677Z,18.40
2018-12-16T22:34:36.326Z,20.00
2018-12-16T22:37:05.082Z,19.93
2018-12-16T22:39:35.359Z,20.17
2018-12-16T22:42:04.728Z,18.30
2018-12-16T22:44:33.777Z,19.83
2018-12-16T22:47:03.507Z,19.33
2018-12-16T22:49:33.142Z,19.93
2018-12-16T22:52:01.746Z,20.00
2018-12-16T22:54:31.352Z,20.00
2018-12-16T22:57:02.295Z,20.37
2018-12-16T22:59:31.022Z,19.00
2018-12-16T23:01:59.699Z,20.30
2018-12-16T23:04:28.413Z,19.07
2018-12-16T23:06:58.246Z,19.27
2018-12-16T23:09:27.068Z,20.07
2018-12-16T23:11:56.382Z,20.30
2018-12-16T23:14:25.168Z,19.27
2018-12-16T23:16:53.929Z,20.70
2018-12-16T23:19:23.674Z,19.17
2018-12-16T23:21:53.390Z,19.73
2018-12-16T23:24:23.041Z,20.23
2018-12-16T23:26:51.994Z,20.37
2018-12-16T23:29:20.919Z,19.07
2018-12-16T23:31:49.632Z,19.90
2018-12-16T23:34:18.997Z,19.87
2018-12-16T23:36:47.826Z,19.80
2018-12-16T23:39:16.959Z,20.33
2018-12-16T23:41:46.677Z,19.80
2018-12-16T23:44:15.589Z,18.70
2018-12-16T23:46:45.444Z,19.57
2018-12-16T23:49:14.153Z,19.97
2018-12-16T23:51:42.988Z,19.17
2018-12-16T23:54:11.759Z,20.37
2018-12-16T23:56:40.568Z,19.53
2018-12-16T23:59:09.299Z,19.63
